createdAt,value
2018-06-04T00:00:23.252Z,1010.11
2018-06-04T00:01:03.808Z,1010.07
2018-06-04T00:01:44.356Z,1010.11
2018-06-04T00:02:24.908Z,1010.08
2018-06-04T00:03:05.480Z,1010.1
2018-06-04T00:03:46.094Z,1010.06
2018-06-04T00:04:26.661Z,1010.09
2018-06-04T00:05:07.223Z,1010.1
2018-06-04T00:05:47.861Z,1010.12
2018-06-04T00:06:28.430Z,1010.12
2018-06-04T00:07:08.987Z,1010.12
2018-06-04T00:07:49.564Z,1010.13
2018-06-04T00:08:30.139Z,1010.1
2018-06-04T00:09:10.723Z,1010.14
2018-06-04T00:09:51.275Z,1010.11
2018-06-04T00:10:31.834Z,1010.12
2018-06-04T00:11:12.379Z,1010.12
2018-06-04T00:11:52.943Z,1010.12
2018-06-04T00:12:33.487Z,1010.11
2018-06-04T00:13:14.046Z,1010.13
2018-06-04T00:13:54.596Z,1010.12
2018-06-04T00:14:35.161Z,1010.09
2018-06-04T00:15:15.743Z,1010.11
2018-06-04T00:15:56.311Z,1010.1
2018-06-04T00:16:36.920Z,1010.13
2018-06-04T00:17:17.491Z,1010.09
2018-06-04T00:17:58.002Z,1010.13
2018-06-04T00:18:38.547Z,1010.11
2018-06-04T00:19:19.101Z,1010.12
2018-06-04T00:19:59.646Z,1010.12
2018-06-04T00:20:40.204Z,1010.08
2018-06-04T00:21:20.746Z,1010.07
2018-06-04T00:22:01.283Z,1010.07
2018-06-04T00:22:41.839Z,1010.06
2018-06-04T00:23:22.401Z,1010.05
2018-06-04T00:24:02.954Z,1010.07
2018-06-04T00:24:43.538Z,1010.04
2018-06-04T00:25:24.088Z,1010.05
2018-06-04T00:26:04.642Z,1010.05
2018-06-04T00:26:45.300Z,1010.04
2018-06-04T00:27:25.878Z,1010.04
2018-06-04T00:28:06.421Z,1010.07
2018-06-04T00:28:46.997Z,1010.04
2018-06-04T00:29:27.595Z,1010.02
2018-06-04T00:30:08.148Z,1010
2018-06-04T00:30:48.748Z,1010.02
2018-06-04T00:31:29.305Z,1009.97
2018-06-04T00:32:09.863Z,1010.01
2018-06-04T00:32:50.435Z,1010
2018-06-04T00:33:31.013Z,1010.01
2018-06-04T00:34:11.601Z,1010
2018-06-04T00:34:52.154Z,1010.01
2018-06-04T00:35:32.720Z,1010.02
2018-06-04T00:36:13.335Z,1010
2018-06-04T00:36:53.910Z,1010
2018-06-04T00:37:34.459Z,1009.99
2018-06-04T00:38:15.026Z,1010.01
2018-06-04T00:38:55.573Z,1010.06
2018-06-04T00:39:36.133Z,1010.02
2018-06-04T00:40:16.671Z,1010.04
2018-06-04T00:40:57.227Z,1009.98
2018-06-04T00:41:37.777Z,1010.01
2018-06-04T00:42:19.096Z,1009.99
2018-06-04T00:42:59.707Z,1010.03
2018-06-04T00:43:40.249Z,1009.99
2018-06-04T00:44:20.837Z,1009.97
2018-06-04T00:45:01.391Z,1009.97
2018-06-04T00:45:41.986Z,1009.98
2018-06-04T00:46:22.553Z,1009.96
2018-06-04T00:47:03.140Z,1009.92
2018-06-04T00:47:43.699Z,1009.95
2018-06-04T00:48:24.364Z,1009.92
2018-06-04T00:49:04.941Z,1009.9
2018-06-04T00:49:45.553Z,1009.92
2018-06-04T00:50:26.063Z,1009.92
2018-06-04T00:51:06.679Z,1009.95
2018-06-04T00:51:47.239Z,1009.93
2018-06-04T00:52:27.810Z,1009.96
2018-06-04T00:53:08.368Z,1009.93
2018-06-04T00:53:48.916Z,1009.91
2018-06-04T00:54:29.501Z,1009.96
2018-06-04T00:55:10.027Z,1009.96
2018-06-04T00:55:50.608Z,1009.91
2018-06-04T00:56:31.180Z,1009.94
2018-06-04T00:57:11.754Z,1009.91
2018-06-04T00:57:52.304Z,1009.94
2018-06-04T00:58:32.956Z,1009.93
2018-06-04T00:59:13.520Z,1009.96
2018-06-04T00:59:54.077Z,1009.96
2018-06-04T01:00:34.691Z,1009.92
2018-06-04T01:01:15.263Z,1009.9
2018-06-04T01:01:55.831Z,1009.89
2018-06-04T01:02:36.380Z,1009.93
2018-06-04T01:03:16.936Z,1009.95
2018-06-04T01:03:57.478Z,1009.92
2018-06-04T01:04:38.033Z,1009.97
2018-06-04T01:05:18.615Z,1009.98
2018-06-04T01:05:59.185Z,1009.92
2018-06-04T01:06:39.737Z,1009.99
2018-06-04T01:07:20.312Z,1009.96
2018-06-04T01:08:00.876Z,1009.95
2018-06-04T01:08:41.434Z,1009.94
2018-06-04T01:09:22.016Z,1009.96
2018-06-04T01:10:02.582Z,1009.93
2018-06-04T01:10:43.160Z,1009.94
2018-06-04T01:11:23.728Z,1009.88
2018-06-04T01:12:04.327Z,1009.88
2018-06-04T01:12:44.908Z,1009.86
2018-06-04T01:13:25.494Z,1009.86
2018-06-04T01:14:06.084Z,1009.84
2018-06-04T01:14:46.644Z,1009.87
2018-06-04T01:15:27.288Z,1009.87
2018-06-04T01:16:07.847Z,1009.86
2018-06-04T01:16:48.416Z,1009.86
2018-06-04T01:17:28.992Z,1009.89
2018-06-04T01:18:09.557Z,1009.9
2018-06-04T01:18:50.111Z,1009.92
2018-06-04T01:19:30.705Z,1009.91
2018-06-04T01:20:11.296Z,1009.91
2018-06-04T01:20:51.859Z,1009.91
2018-06-04T01:21:32.457Z,1009.88
2018-06-04T01:22:13.081Z,1009.9
2018-06-04T01:22:53.682Z,1009.91
2018-06-04T01:23:34.228Z,1009.85
2018-06-04T01:24:14.780Z,1009.87
2018-06-04T01:24:55.342Z,1009.89
2018-06-04T01:25:35.906Z,1009.85
2018-06-04T01:26:16.474Z,1009.91
2018-06-04T01:26:57.030Z,1009.86
2018-06-04T01:27:37.577Z,1009.88
2018-06-04T01:28:18.129Z,1009.87
2018-06-04T01:28:58.708Z,1009.87
2018-06-04T01:29:39.309Z,1009.84
2018-06-04T01:30:19.861Z,1009.85
2018-06-04T01:31:00.397Z,1009.88
2018-06-04T01:31:40.971Z,1009.83
2018-06-04T01:32:21.568Z,1009.83
2018-06-04T01:33:02.141Z,1009.82
2018-06-04T01:33:42.760Z,1009.78
2018-06-04T01:34:23.314Z,1009.78
2018-06-04T01:35:03.880Z,1009.74
2018-06-04T01:35:44.448Z,1009.78
2018-06-04T01:36:25.085Z,1009.75
2018-06-04T01:37:05.681Z,1009.78
2018-06-04T01:37:46.258Z,1009.73
2018-06-04T01:38:26.782Z,1009.77
2018-06-04T01:39:07.349Z,1009.73
2018-06-04T01:39:47.928Z,1009.72
2018-06-04T01:40:28.497Z,1009.74
2018-06-04T01:41:09.053Z,1009.7
2018-06-04T01:41:49.613Z,1009.73
2018-06-04T01:42:30.164Z,1009.7
2018-06-04T01:43:10.816Z,1009.69
2018-06-04T01:43:51.392Z,1009.71
2018-06-04T01:44:31.939Z,1009.71
2018-06-04T01:45:12.532Z,1009.71
2018-06-04T01:45:53.100Z,1009.71
2018-06-04T01:46:33.681Z,1009.7
2018-06-04T01:47:14.246Z,1009.73
2018-06-04T01:47:54.794Z,1009.71
2018-06-04T01:48:35.348Z,1009.7
2018-06-04T01:49:15.910Z,1009.7
2018-06-04T01:49:56.502Z,1009.67
2018-06-04T01:50:37.074Z,1009.69
2018-06-04T01:51:17.656Z,1009.7
2018-06-04T01:51:58.215Z,1009.69
2018-06-04T01:52:38.789Z,1009.67
2018-06-04T01:53:19.320Z,1009.68
2018-06-04T01:53:59.867Z,1009.67
2018-06-04T01:54:40.481Z,1009.72
2018-06-04T01:55:21.064Z,1009.71
2018-06-04T01:56:01.602Z,1009.74
2018-06-04T01:56:42.171Z,1009.71
2018-06-04T01:57:22.737Z,1009.69
2018-06-04T01:58:03.314Z,1009.72
2018-06-04T01:58:43.921Z,1009.68
2018-06-04T01:59:24.559Z,1009.72
2018-06-04T02:00:05.117Z,1009.64
2018-06-04T02:00:45.678Z,1009.68
2018-06-04T02:01:26.264Z,1009.65
2018-06-04T02:02:06.810Z,1009.72
2018-06-04T02:02:47.366Z,1009.69
2018-06-04T02:03:27.933Z,1009.7
2018-06-04T02:04:08.518Z,1009.69
2018-06-04T02:04:49.074Z,1009.69
2018-06-04T02:05:29.635Z,1009.69
2018-06-04T02:06:10.227Z,1009.69
2018-06-04T02:06:50.799Z,1009.71
2018-06-04T02:07:31.378Z,1009.65
2018-06-04T02:08:11.919Z,1009.65
2018-06-04T02:08:52.470Z,1009.67
2018-06-04T02:09:33.035Z,1009.63
2018-06-04T02:10:13.599Z,1009.65
2018-06-04T02:10:54.150Z,1009.65
2018-06-04T02:11:34.723Z,1009.66
2018-06-04T02:12:15.331Z,1009.65
2018-06-04T02:12:55.845Z,1009.67
2018-06-04T02:13:36.419Z,1009.65
2018-06-04T02:14:16.988Z,1009.64
2018-06-04T02:14:57.532Z,1009.63
2018-06-04T02:15:38.090Z,1009.63
2018-06-04T02:16:18.685Z,1009.66
2018-06-04T02:16:59.202Z,1009.65
2018-06-04T02:17:39.757Z,1009.64
2018-06-04T02:18:20.299Z,1009.64
2018-06-04T02:19:00.849Z,1009.66
2018-06-04T02:19:41.408Z,1009.62
2018-06-04T02:20:21.955Z,1009.62
2018-06-04T02:21:02.511Z,1009.64
2018-06-04T02:21:43.085Z,1009.62
2018-06-04T02:22:23.682Z,1009.63
2018-06-04T02:23:04.240Z,1009.62
2018-06-04T02:23:44.802Z,1009.62
2018-06-04T02:24:25.343Z,1009.6
2018-06-04T02:25:05.963Z,1009.6
2018-06-04T02:25:46.562Z,1009.59
2018-06-04T02:26:27.116Z,1009.61
2018-06-04T02:27:07.658Z,1009.6
2018-06-04T02:27:48.249Z,1009.6
2018-06-04T02:28:28.824Z,1009.61
2018-06-04T02:29:09.378Z,1009.59
2018-06-04T02:29:49.960Z,1009.58
2018-06-04T02:30:30.523Z,1009.56
2018-06-04T02:31:11.065Z,1009.6
2018-06-04T02:31:51.624Z,1009.61
2018-06-04T02:32:32.217Z,1009.6
2018-06-04T02:33:12.781Z,1009.61
2018-06-04T02:33:53.357Z,1009.61
2018-06-04T02:34:33.905Z,1009.64
2018-06-04T02:35:14.461Z,1009.59
2018-06-04T02:35:55.030Z,1009.59
2018-06-04T02:36:35.619Z,1009.61
2018-06-04T02:37:16.170Z,1009.58
2018-06-04T02:37:56.770Z,1009.56
2018-06-04T02:38:37.324Z,1009.57
2018-06-04T02:39:17.875Z,1009.58
2018-06-04T02:39:58.425Z,1009.59
2018-06-04T02:40:38.969Z,1009.58
2018-06-04T02:41:19.520Z,1009.58
2018-06-04T02:42:00.059Z,1009.59
2018-06-04T02:42:40.667Z,1009.61
2018-06-04T02:43:21.220Z,1009.6
2018-06-04T02:44:01.781Z,1009.6
2018-06-04T02:44:42.370Z,1009.58
2018-06-04T02:45:22.939Z,1009.59
2018-06-04T02:46:03.543Z,1009.59
2018-06-04T02:46:44.122Z,1009.58
2018-06-04T02:47:24.688Z,1009.6
2018-06-04T02:48:05.259Z,1009.6
2018-06-04T02:48:45.834Z,1009.58
2018-06-04T02:49:26.395Z,1009.58
2018-06-04T02:50:07.094Z,1009.51
2018-06-04T02:50:47.536Z,1009.58
2018-06-04T02:51:28.103Z,1009.53
2018-06-04T02:52:08.650Z,1009.55
2018-06-04T02:52:49.208Z,1009.52
2018-06-04T02:53:29.789Z,1009.54
2018-06-04T02:54:10.361Z,1009.53
2018-06-04T02:54:50.923Z,1009.51
2018-06-04T02:55:31.500Z,1009.5
2018-06-04T02:56:12.051Z,1009.51
2018-06-04T02:56:52.597Z,1009.5
2018-06-04T02:57:33.149Z,1009.5
2018-06-04T02:58:13.776Z,1009.49
2018-06-04T02:58:54.346Z,1009.52
2018-06-04T02:59:34.942Z,1009.52
2018-06-04T03:00:15.510Z,1009.51
2018-06-04T03:00:56.072Z,1009.53
2018-06-04T03:01:36.652Z,1009.52
2018-06-04T03:02:17.219Z,1009.51
2018-06-04T03:02:57.769Z,1009.51
2018-06-04T03:03:38.338Z,1009.5
2018-06-04T03:04:18.966Z,1009.51
2018-06-04T03:04:59.496Z,1009.48
2018-06-04T03:05:40.073Z,1009.48
2018-06-04T03:06:20.619Z,1009.48
2018-06-04T03:07:01.160Z,1009.46
2018-06-04T03:07:41.718Z,1009.44
2018-06-04T03:08:22.340Z,1009.45
2018-06-04T03:09:02.905Z,1009.46
2018-06-04T03:09:43.462Z,1009.45
2018-06-04T03:10:24.024Z,1009.45
2018-06-04T03:11:04.608Z,1009.43
2018-06-04T03:11:45.133Z,1009.48
2018-06-04T03:12:25.794Z,1009.45
2018-06-04T03:13:06.346Z,1009.45
2018-06-04T03:13:46.907Z,1009.44
2018-06-04T03:14:27.449Z,1009.45
2018-06-04T03:15:08.026Z,1009.46
2018-06-04T03:15:48.624Z,1009.44
2018-06-04T03:16:29.177Z,1009.45
2018-06-04T03:17:09.729Z,1009.4
2018-06-04T03:17:50.294Z,1009.4
2018-06-04T03:18:30.873Z,1009.41
2018-06-04T03:19:11.436Z,1009.42
2018-06-04T03:19:52.072Z,1009.41
2018-06-04T03:20:32.631Z,1009.4
2018-06-04T03:21:13.217Z,1009.4
2018-06-04T03:21:53.785Z,1009.39
2018-06-04T03:22:34.323Z,1009.43
2018-06-04T03:23:14.893Z,1009.39
2018-06-04T03:23:55.422Z,1009.39
2018-06-04T03:24:35.983Z,1009.4
2018-06-04T03:25:16.584Z,1009.33
2018-06-04T03:25:57.159Z,1009.36
2018-06-04T03:26:37.736Z,1009.34
2018-06-04T03:27:18.292Z,1009.31
2018-06-04T03:27:58.852Z,1009.38
2018-06-04T03:28:39.412Z,1009.37
2018-06-04T03:29:19.961Z,1009.35
2018-06-04T03:30:00.541Z,1009.35
2018-06-04T03:30:41.086Z,1009.32
2018-06-04T03:31:21.675Z,1009.35
2018-06-04T03:32:02.246Z,1009.29
2018-06-04T03:32:42.800Z,1009.29
2018-06-04T03:33:23.348Z,1009.28
2018-06-04T03:34:03.914Z,1009.26
2018-06-04T03:34:44.528Z,1009.31
2018-06-04T03:35:25.110Z,1009.27
2018-06-04T03:36:05.659Z,1009.26
2018-06-04T03:36:46.248Z,1009.35
2018-06-04T03:37:26.806Z,1009.27
2018-06-04T03:38:07.384Z,1009.25
2018-06-04T03:38:47.959Z,1009.28
2018-06-04T03:39:28.505Z,1009.27
2018-06-04T03:40:09.070Z,1009.29
2018-06-04T03:40:49.663Z,1009.29
2018-06-04T03:41:30.231Z,1009.24
2018-06-04T03:42:10.788Z,1009.29
2018-06-04T03:42:51.374Z,1009.26
2018-06-04T03:43:31.933Z,1009.22
2018-06-04T03:44:12.481Z,1009.22
2018-06-04T03:44:53.029Z,1009.18
2018-06-04T03:45:33.581Z,1009.23
2018-06-04T03:46:14.161Z,1009.18
2018-06-04T03:46:54.718Z,1009.17
2018-06-04T03:47:35.275Z,1009.19
2018-06-04T03:48:15.846Z,1009.17
2018-06-04T03:48:56.396Z,1009.16
2018-06-04T03:49:36.947Z,1009.2
2018-06-04T03:50:17.495Z,1009.19
2018-06-04T03:50:58.104Z,1009.15
2018-06-04T03:51:38.903Z,1009.15
2018-06-04T03:52:19.472Z,1009.2
2018-06-04T03:53:00.041Z,1009.16
2018-06-04T03:53:40.638Z,1009.18
2018-06-04T03:54:21.194Z,1009.15
2018-06-04T03:55:01.771Z,1009.14
2018-06-04T03:55:42.342Z,1009.13
2018-06-04T03:56:22.890Z,1009.15
2018-06-04T03:57:03.439Z,1009.08
2018-06-04T03:57:44.953Z,1009.09
2018-06-04T03:58:25.522Z,1009.09
2018-06-04T03:59:06.182Z,1009.08
2018-06-04T03:59:46.668Z,1009.08
2018-06-04T04:00:27.230Z,1009.1
2018-06-04T04:01:07.823Z,1009.14
2018-06-04T04:01:48.431Z,1009.12
2018-06-04T04:02:28.987Z,1009.15
2018-06-04T04:03:09.522Z,1009.12
2018-06-04T04:03:50.099Z,1009.13
2018-06-04T04:04:30.632Z,1009.13
2018-06-04T04:05:11.198Z,1009.09
2018-06-04T04:05:51.803Z,1009.12
2018-06-04T04:06:32.376Z,1009.14
2018-06-04T04:07:12.938Z,1009.17
2018-06-04T04:07:53.491Z,1009.11
2018-06-04T04:08:34.037Z,1009.1
2018-06-04T04:09:14.590Z,1009.14
2018-06-04T04:09:55.208Z,1009.14
2018-06-04T04:10:35.814Z,1009.13
2018-06-04T04:11:16.334Z,1009.11
2018-06-04T04:11:56.877Z,1009.14
2018-06-04T04:12:37.422Z,1009.12
2018-06-04T04:13:17.995Z,1009.13
2018-06-04T04:13:58.535Z,1009.1
2018-06-04T04:14:39.118Z,1009.14
2018-06-04T04:15:19.708Z,1009.16
2018-06-04T04:16:00.298Z,1009.18
2018-06-04T04:16:40.855Z,1009.19
2018-06-04T04:17:21.459Z,1009.17
2018-06-04T04:18:02.043Z,1009.17
2018-06-04T04:18:42.607Z,1009.17
2018-06-04T04:19:23.143Z,1009.16
2018-06-04T04:20:03.708Z,1009.18
2018-06-04T04:20:44.259Z,1009.16
2018-06-04T04:21:24.815Z,1009.16
2018-06-04T04:22:05.377Z,1009.16
2018-06-04T04:22:45.959Z,1009.12
2018-06-04T04:23:26.601Z,1009.13
2018-06-04T04:24:07.177Z,1009.09
2018-06-04T04:24:47.751Z,1009.15
2018-06-04T04:25:28.305Z,1009.15
2018-06-04T04:26:08.853Z,1009.16
2018-06-04T04:26:49.452Z,1009.15
2018-06-04T04:27:30.010Z,1009.12
2018-06-04T04:28:10.586Z,1009.13
2018-06-04T04:28:51.159Z,1009.14
2018-06-04T04:29:31.705Z,1009.14
2018-06-04T04:30:12.244Z,1009.13
2018-06-04T04:30:52.809Z,1009.13
2018-06-04T04:31:33.422Z,1009.17
2018-06-04T04:32:13.988Z,1009.15
2018-06-04T04:32:54.552Z,1009.13
2018-06-04T04:33:35.118Z,1009.13
2018-06-04T04:34:15.675Z,1009.14
2018-06-04T04:34:56.240Z,1009.17
2018-06-04T04:35:36.817Z,1009.13
2018-06-04T04:36:17.384Z,1009.16
2018-06-04T04:36:57.955Z,1009.21
2018-06-04T04:37:38.563Z,1009.21
2018-06-04T04:38:19.161Z,1009.16
2018-06-04T04:38:59.776Z,1009.2
2018-06-04T04:39:40.360Z,1009.17
2018-06-04T04:40:20.928Z,1009.18
2018-06-04T04:41:01.485Z,1009.14
2018-06-04T04:41:42.043Z,1009.21
2018-06-04T04:42:22.593Z,1009.2
2018-06-04T04:43:03.146Z,1009.22
2018-06-04T04:43:43.744Z,1009.21
2018-06-04T04:44:24.306Z,1009.21
2018-06-04T04:45:04.897Z,1009.21
2018-06-04T04:45:45.461Z,1009.2
2018-06-04T04:46:25.988Z,1009.21
2018-06-04T04:47:06.550Z,1009.21
2018-06-04T04:47:47.097Z,1009.22
2018-06-04T04:48:27.696Z,1009.21
2018-06-04T04:49:08.272Z,1009.17
2018-06-04T04:49:48.840Z,1009.17
2018-06-04T04:50:29.429Z,1009.16
2018-06-04T04:51:09.991Z,1009.12
2018-06-04T04:51:50.553Z,1009.15
2018-06-04T04:52:31.131Z,1009.2
2018-06-04T04:53:11.700Z,1009.15
2018-06-04T04:53:52.272Z,1009.17
2018-06-04T04:54:32.822Z,1009.15
2018-06-04T04:55:13.363Z,1009.22
2018-06-04T04:55:53.945Z,1009.16
2018-06-04T04:56:34.512Z,1009.16
2018-06-04T04:57:15.084Z,1009.17
2018-06-04T04:57:55.645Z,1009.14
2018-06-04T04:58:36.197Z,1009.14
2018-06-04T04:59:16.747Z,1009.13
2018-06-04T04:59:57.309Z,1009.15
2018-06-04T05:00:37.856Z,1009.13
2018-06-04T05:01:18.416Z,1009.14
2018-06-04T05:01:58.974Z,1009.12
2018-06-04T05:02:39.563Z,1009.19
2018-06-04T05:03:20.177Z,1009.17
2018-06-04T05:04:00.841Z,1009.15
2018-06-04T05:04:41.411Z,1009.17
2018-06-04T05:05:22.007Z,1009.18
2018-06-04T05:06:02.574Z,1009.16
2018-06-04T05:06:43.148Z,1009.17
2018-06-04T05:07:23.726Z,1009.15
2018-06-04T05:08:04.296Z,1009.19
2018-06-04T05:08:44.892Z,1009.17
2018-06-04T05:09:25.555Z,1009.18
2018-06-04T05:10:06.120Z,1009.16
2018-06-04T05:10:46.681Z,1009.17
2018-06-04T05:11:27.262Z,1009.19
2018-06-04T05:12:07.824Z,1009.14
2018-06-04T05:12:48.395Z,1009.15
2018-06-04T05:13:28.959Z,1009.15
2018-06-04T05:14:09.532Z,1009.13
2018-06-04T05:14:50.120Z,1009.14
2018-06-04T05:15:30.677Z,1009.17
2018-06-04T05:16:11.249Z,1009.14
2018-06-04T05:16:51.810Z,1009.12
2018-06-04T05:17:32.387Z,1009.14
2018-06-04T05:18:12.978Z,1009.16
2018-06-04T05:18:53.598Z,1009.14
2018-06-04T05:19:34.107Z,1009.12
2018-06-04T05:20:14.738Z,1009.13
2018-06-04T05:20:55.324Z,1009.1
2018-06-04T05:21:35.902Z,1009.05
2018-06-04T05:22:16.468Z,1009.08
2018-06-04T05:22:57.043Z,1009.03
2018-06-04T05:23:37.618Z,1009.03
2018-06-04T05:24:18.185Z,1009.03
2018-06-04T05:24:58.759Z,1008.98
2018-06-04T05:25:39.335Z,1009.01
2018-06-04T05:26:19.899Z,1008.98
2018-06-04T05:27:00.469Z,1008.94
2018-06-04T05:27:41.038Z,1008.92
2018-06-04T05:28:21.623Z,1008.93
2018-06-04T05:29:02.197Z,1008.91
2018-06-04T05:29:42.764Z,1008.96
2018-06-04T05:30:23.331Z,1009.01
2018-06-04T05:31:03.909Z,1008.94
2018-06-04T05:31:44.664Z,1009
2018-06-04T05:32:25.229Z,1008.99
2018-06-04T05:33:05.807Z,1008.99
2018-06-04T05:33:46.382Z,1009.03
2018-06-04T05:34:26.955Z,1009.05
2018-06-04T05:35:07.521Z,1009.12
2018-06-04T05:35:48.084Z,1009.16
2018-06-04T05:36:28.655Z,1009.16
2018-06-04T05:37:09.244Z,1009.14
2018-06-04T05:37:49.793Z,1009.21
2018-06-04T05:38:30.358Z,1009.18
2018-06-04T05:39:10.930Z,1009.19
2018-06-04T05:39:51.502Z,1009.16
2018-06-04T05:40:32.078Z,1009.2
2018-06-04T05:41:12.641Z,1009.27
2018-06-04T05:41:53.219Z,1009.3
2018-06-04T05:42:33.781Z,1009.33
2018-06-04T05:43:14.356Z,1009.36
2018-06-04T05:43:54.932Z,1009.38
2018-06-04T05:44:35.563Z,1009.38
2018-06-04T05:45:16.132Z,1009.43
2018-06-04T05:45:56.704Z,1009.42
2018-06-04T05:46:37.263Z,1009.46
2018-06-04T05:47:17.841Z,1009.5
2018-06-04T05:47:58.412Z,1009.58
2018-06-04T05:48:38.979Z,1009.68
2018-06-04T05:49:19.553Z,1009.75
2018-06-04T05:50:00.172Z,1009.83
2018-06-04T05:50:40.803Z,1009.92
2018-06-04T05:51:21.385Z,1009.91
2018-06-04T05:52:01.939Z,1009.95
2018-06-04T05:52:42.509Z,1010.02
2018-06-04T05:53:23.072Z,1010.06
2018-06-04T05:54:03.620Z,1010.07
2018-06-04T05:54:44.203Z,1010.05
2018-06-04T05:55:24.779Z,1010.01
2018-06-04T05:56:05.372Z,1009.99
2018-06-04T05:56:45.917Z,1010.02
2018-06-04T05:57:26.510Z,1009.99
2018-06-04T05:58:07.087Z,1009.94
2018-06-04T05:58:47.665Z,1009.9
2018-06-04T05:59:28.234Z,1009.81
2018-06-04T06:00:08.785Z,1009.86
2018-06-04T06:00:49.348Z,1009.89
2018-06-04T06:01:29.926Z,1009.84
2018-06-04T06:02:10.488Z,1009.81
2018-06-04T06:02:51.066Z,1009.79
2018-06-04T06:03:31.639Z,1009.8
2018-06-04T06:04:12.215Z,1009.81
2018-06-04T06:04:52.846Z,1009.78
2018-06-04T06:05:33.408Z,1009.68
2018-06-04T06:06:13.983Z,1009.68
2018-06-04T06:06:54.560Z,1009.63
2018-06-04T06:07:35.134Z,1009.66
2018-06-04T06:08:15.798Z,1009.7
2018-06-04T06:08:56.363Z,1009.67
2018-06-04T06:09:36.943Z,1009.64
2018-06-04T06:10:17.510Z,1009.72
2018-06-04T06:10:58.137Z,1009.78
2018-06-04T06:11:38.724Z,1009.85
2018-06-04T06:12:19.294Z,1009.65
2018-06-04T06:13:00.436Z,1009.65
2018-06-04T06:13:40.838Z,1009.68
2018-06-04T06:14:21.434Z,1009.72
2018-06-04T06:15:02.030Z,1009.72
2018-06-04T06:15:42.571Z,1009.72
2018-06-04T06:16:23.173Z,1009.72
2018-06-04T06:17:03.723Z,1009.8
2018-06-04T06:17:44.280Z,1009.74
2018-06-04T06:18:24.859Z,1009.71
2018-06-04T06:19:05.461Z,1009.69
2018-06-04T06:19:46.059Z,1009.71
2018-06-04T06:20:26.629Z,1009.79
2018-06-04T06:21:07.185Z,1009.79
2018-06-04T06:21:47.737Z,1009.86
2018-06-04T06:22:28.357Z,1009.88
2018-06-04T06:23:08.981Z,1009.98
2018-06-04T06:23:49.564Z,1009.96
2018-06-04T06:24:30.145Z,1009.86
2018-06-04T06:25:10.707Z,1009.85
2018-06-04T06:25:51.241Z,1009.82
2018-06-04T06:26:31.790Z,1009.84
2018-06-04T06:27:12.374Z,1009.76
2018-06-04T06:27:52.949Z,1009.7
2018-06-04T06:28:33.541Z,1009.65
2018-06-04T06:29:14.088Z,1009.61
2018-06-04T06:29:54.650Z,1009.65
2018-06-04T06:30:35.308Z,1009.65
2018-06-04T06:31:15.830Z,1009.65
2018-06-04T06:31:56.412Z,1009.71
2018-06-04T06:32:37.016Z,1009.84
2018-06-04T06:33:17.596Z,1009.88
2018-06-04T06:33:58.174Z,1009.87
2018-06-04T06:34:38.749Z,1009.9
2018-06-04T06:35:19.326Z,1009.78
2018-06-04T06:35:59.911Z,1009.65
2018-06-04T06:36:40.459Z,1009.54
2018-06-04T06:37:21.072Z,1009.64
2018-06-04T06:38:01.680Z,1009.62
2018-06-04T06:38:42.282Z,1009.52
2018-06-04T06:39:22.865Z,1009.42
2018-06-04T06:40:03.448Z,1009.29
2018-06-04T06:40:44.005Z,1009.23
2018-06-04T06:41:24.577Z,1009.2
2018-06-04T06:42:05.149Z,1009.16
2018-06-04T06:42:45.712Z,1009.07
2018-06-04T06:43:26.284Z,1009.1
2018-06-04T06:44:06.867Z,1009.09
2018-06-04T06:44:47.441Z,1009.03
2018-06-04T06:45:28.103Z,1009.08
2018-06-04T06:46:08.676Z,1009.07
2018-06-04T06:46:49.237Z,1009.09
2018-06-04T06:47:29.812Z,1009.08
2018-06-04T06:48:10.380Z,1009.09
2018-06-04T06:48:51.191Z,1009.13
2018-06-04T06:49:31.760Z,1009.23
2018-06-04T06:50:12.368Z,1009.35
2018-06-04T06:50:52.943Z,1009.33
2018-06-04T06:51:33.542Z,1009.28
2018-06-04T06:52:14.130Z,1009.19
2018-06-04T06:52:54.688Z,1009.17
2018-06-04T06:53:35.295Z,1009.11
2018-06-04T06:54:15.883Z,1009.04
2018-06-04T06:54:56.491Z,1009.08
2018-06-04T06:55:37.069Z,1009.04
2018-06-04T06:56:17.635Z,1009.03
2018-06-04T06:56:58.204Z,1009.01
2018-06-04T06:57:38.777Z,1009.05
2018-06-04T06:58:19.348Z,1009.05
2018-06-04T06:58:59.937Z,1009
2018-06-04T06:59:40.513Z,1009.04
2018-06-04T07:00:21.094Z,1009
2018-06-04T07:01:01.664Z,1008.98
2018-06-04T07:01:42.255Z,1009.01
2018-06-04T07:02:22.843Z,1009.03
2018-06-04T07:03:03.404Z,1009.01
2018-06-04T07:03:43.989Z,1009.01
2018-06-04T07:04:24.804Z,1009
2018-06-04T07:05:05.366Z,1008.98
2018-06-04T07:05:45.956Z,1008.98
2018-06-04T07:06:26.521Z,1008.96
2018-06-04T07:07:07.078Z,1008.99
2018-06-04T07:07:47.661Z,1009.02
2018-06-04T07:08:28.273Z,1009.09
2018-06-04T07:09:08.836Z,1009.21
2018-06-04T07:09:49.412Z,1009.21
2018-06-04T07:10:29.997Z,1009.16
2018-06-04T07:11:10.575Z,1009.04
2018-06-04T07:11:51.170Z,1008.96
2018-06-04T07:12:31.772Z,1008.97
2018-06-04T07:13:12.323Z,1008.94
2018-06-04T07:13:52.887Z,1008.96
2018-06-04T07:14:33.472Z,1008.98
2018-06-04T07:15:14.036Z,1008.96
2018-06-04T07:15:54.611Z,1008.88
2018-06-04T07:16:35.171Z,1008.91
2018-06-04T07:17:15.775Z,1008.86
2018-06-04T07:17:56.347Z,1008.82
2018-06-04T07:18:36.939Z,1008.8
2018-06-04T07:19:17.469Z,1008.78
2018-06-04T07:19:58.036Z,1008.93
2018-06-04T07:20:38.610Z,1009.15
2018-06-04T07:21:19.155Z,1009.13
2018-06-04T07:21:59.708Z,1009.12
2018-06-04T07:22:40.294Z,1009.12
2018-06-04T07:23:20.865Z,1009.09
2018-06-04T07:24:01.447Z,1009.06
2018-06-04T07:24:41.991Z,1009.1
2018-06-04T07:25:22.585Z,1009.05
2018-06-04T07:26:03.169Z,1008.99
2018-06-04T07:26:43.746Z,1008.95
2018-06-04T07:27:24.303Z,1008.92
2018-06-04T07:28:04.862Z,1008.92
2018-06-04T07:28:45.492Z,1008.96
2018-06-04T07:29:26.057Z,1008.9
2018-06-04T07:30:06.672Z,1008.96
2018-06-04T07:30:47.245Z,1008.95
2018-06-04T07:31:27.808Z,1008.93
2018-06-04T07:32:08.373Z,1008.91
2018-06-04T07:32:48.923Z,1008.89
2018-06-04T07:33:29.546Z,1008.88
2018-06-04T07:34:10.212Z,1008.89
2018-06-04T07:34:50.806Z,1008.9
2018-06-04T07:35:31.341Z,1008.9
2018-06-04T07:36:11.920Z,1008.9
2018-06-04T07:36:52.551Z,1008.84
2018-06-04T07:37:33.059Z,1008.87
2018-06-04T07:38:13.635Z,1008.86
2018-06-04T07:38:54.228Z,1008.87
2018-06-04T07:39:34.812Z,1008.91
2018-06-04T07:40:15.363Z,1008.9
2018-06-04T07:40:55.944Z,1008.89
2018-06-04T07:41:36.576Z,1008.86
2018-06-04T07:42:17.205Z,1008.84
2018-06-04T07:42:57.806Z,1008.89
2018-06-04T07:43:38.397Z,1008.87
2018-06-04T07:44:19.022Z,1008.86
2018-06-04T07:44:59.709Z,1008.83
2018-06-04T07:45:40.309Z,1008.86
2018-06-04T07:46:20.849Z,1008.84
2018-06-04T07:47:01.412Z,1008.85
2018-06-04T07:47:42.014Z,1008.84
2018-06-04T07:48:22.581Z,1008.86
2018-06-04T07:49:03.167Z,1008.89
2018-06-04T07:49:43.728Z,1008.83
2018-06-04T07:50:24.318Z,1008.83
2018-06-04T07:51:04.906Z,1008.84
2018-06-04T07:51:45.501Z,1008.8
2018-06-04T07:52:26.077Z,1008.82
2018-06-04T07:53:06.648Z,1008.82
2018-06-04T07:53:47.221Z,1008.76
2018-06-04T07:54:27.784Z,1008.81
2018-06-04T07:55:08.361Z,1008.78
2018-06-04T07:55:48.927Z,1008.76
2018-06-04T07:56:29.510Z,1008.73
2018-06-04T07:57:10.079Z,1008.72
2018-06-04T07:57:50.651Z,1008.73
2018-06-04T07:58:31.261Z,1008.71
2018-06-04T07:59:11.822Z,1008.74
2018-06-04T07:59:52.397Z,1008.66
2018-06-04T08:00:32.982Z,1008.63
2018-06-04T08:01:13.580Z,1008.61
2018-06-04T08:01:54.229Z,1008.67
2018-06-04T08:02:34.840Z,1008.63
2018-06-04T08:03:15.418Z,1008.62
2018-06-04T08:03:56.022Z,1008.59
2018-06-04T08:04:36.597Z,1008.6
2018-06-04T08:05:17.180Z,1008.63
2018-06-04T08:05:57.779Z,1008.64
2018-06-04T08:06:38.358Z,1008.66
2018-06-04T08:07:18.942Z,1008.65
2018-06-04T08:07:59.536Z,1008.67
2018-06-04T08:08:40.116Z,1008.64
2018-06-04T08:09:20.700Z,1008.6
2018-06-04T08:10:01.361Z,1008.6
2018-06-04T08:10:41.902Z,1008.57
2018-06-04T08:11:22.447Z,1008.56
2018-06-04T08:12:03.004Z,1008.58
2018-06-04T08:12:43.612Z,1008.59